Time;durP1;ratioP1;P1;durP2;ratioP2;P2;SDS_P1;SDS_P2;PMS_P1;PMS_P2;Temp;Humidity;BMP_temperature;BMP_pressure;BME280_temperature;BME280_humidity;BME280_pressure;Samples;Min_cycle;Max_cycle;Signal;HPM_P1;HPM_P2
2021/06/27 00:01:13;;;;;;;1.40;1.20;;;26.50;48.70;;;;;;5058662;28;20064;-54
2021/06/27 00:03:38;;;;;;;1.52;1.10;;;26.50;48.70;;;;;;5047701;28;20098;-56
2021/06/27 00:06:06;;;;;;;1.58;1.20;;;26.50;49.20;;;;;;5065495;28;20095;-52
2021/06/27 00:08:32;;;;;;;1.10;1.00;;;26.50;48.70;;;;;;5055814;28;20356;-57
2021/06/27 00:10:58;;;;;;;1.10;1.00;;;26.40;48.70;;;;;;5070276;28;20115;-55
2021/06/27 00:13:29;;;;;;;1.63;1.25;;;26.40;48.70;;;;;;5068996;28;20438;-54
2021/06/27 00:15:56;;;;;;;2.10;1.30;;;26.40;48.80;;;;;;5069475;28;20024;-57
2021/06/27 00:18:24;;;;;;;2.38;1.10;;;26.40;48.80;;;;;;5066063;28;20047;-59
2021/06/27 00:21:00;;;;;;;1.33;1.03;;;26.40;48.80;;;;;;5068548;28;20359;-51
2021/06/27 00:23:30;;;;;;;1.27;1.02;;;26.40;48.80;;;;;;5070626;28;20283;-57
2021/06/27 00:25:58;;;;;;;1.35;1.10;;;26.40;48.80;;;;;;5056250;28;20037;-57
2021/06/27 00:28:25;;;;;;;1.40;1.10;;;26.40;49.30;;;;;;5063905;28;20177;-58
2021/06/27 00:30:52;;;;;;;1.58;1.17;;;26.40;48.80;;;;;;5062091;28;20033;-55
2021/06/27 00:33:18;;;;;;;1.83;1.20;;;26.40;48.90;;;;;;5050880;28;20086;-58
2021/06/27 00:35:45;;;;;;;1.20;1.10;;;26.40;48.90;;;;;;5053381;28;20047;-56
2021/06/27 00:38:11;;;;;;;1.40;1.15;;;26.40;48.80;;;;;;5049531;28;20288;-54
2021/06/27 00:40:37;;;;;;;1.67;1.20;;;26.40;48.90;;;;;;5050284;28;20244;-56
2021/06/27 00:43:04;;;;;;;1.60;1.27;;;26.30;48.80;;;;;;5048713;28;20037;-58
2021/06/27 00:45:31;;;;;;;1.40;1.10;;;26.30;48.90;;;;;;5054576;28;20021;-57
2021/06/27 00:47:58;;;;;;;1.33;1.20;;;26.40;48.90;;;;;;5054976;28;20383;-59
2021/06/27 00:50:30;;;;;;;1.35;1.13;;;26.40;48.90;;;;;;5062777;28;20057;-54
2021/06/27 00:52:56;;;;;;;1.80;1.00;;;26.40;48.90;;;;;;5057616;28;20085;-55
2021/06/27 00:55:22;;;;;;;1.15;1.05;;;26.30;48.90;;;;;;5050403;28;20021;-51
2021/06/27 00:57:50;;;;;;;1.35;1.10;;;26.30;48.90;;;;;;5053219;28;20043;-58
2021/06/27 01:00:18;;;;;;;1.58;1.23;;;26.30;48.90;;;;;;5063671;28;20044;-56
2021/06/27 01:02:45;;;;;;;2.00;1.20;;;26.30;48.90;;;;;;5054596;28;20418;-56
2021/06/27 01:05:13;;;;;;;1.52;1.17;;;26.30;49.00;;;;;;5054391;28;20020;-54
2021/06/27 01:07:39;;;;;;;1.17;1.08;;;26.30;49.00;;;;;;5068034;28;20014;-56
2021/06/27 01:10:06;;;;;;;1.30;1.10;;;26.30;49.00;;;;;;5062864;28;20035;-59
2021/06/27 01:12:32;;;;;;;1.13;1.00;;;26.30;49.00;;;;;;5054346;28;20136;-57
2021/06/27 01:14:59;;;;;;;1.65;1.20;;;26.30;49.00;;;;;;5064205;28;20797;-53
2021/06/27 01:17:25;;;;;;;1.27;1.10;;;26.20;48.90;;;;;;5049684;28;20041;-53
2021/06/27 01:19:51;;;;;;;1.35;1.10;;;26.30;49.00;;;;;;5064483;28;20040;-54
2021/06/27 01:22:17;;;;;;;1.23;1.00;;;26.30;49.00;;;;;;5060543;28;20128;-57
2021/06/27 01:24:43;;;;;;;1.13;1.00;;;26.20;48.90;;;;;;5063046;28;20032;-56
2021/06/27 01:27:08;;;;;;;1.38;1.10;;;26.30;49.00;;;;;;5052689;28;20033;-56
2021/06/27 01:29:34;;;;;;;1.52;1.10;;;26.30;49.00;;;;;;5065639;28;20560;-55
2021/06/27 01:32:00;;;;;;;1.27;1.05;;;26.20;49.00;;;;;;5059102;28;20074;-55
2021/06/27 01:34:25;;;;;;;1.10;1.00;;;26.20;49.00;;;;;;5050786;28;20036;-55
2021/06/27 01:36:51;;;;;;;1.23;1.10;;;26.20;49.00;;;;;;5061877;28;20067;-53
2021/06/27 01:39:17;;;;;;;1.40;1.05;;;26.20;49.00;;;;;;5068482;28;20063;-58
2021/06/27 01:41:50;;;;;;;1.30;1.10;;;26.20;49.00;;;;;;5060553;28;20029;-55
2021/06/27 01:44:17;;;;;;;1.23;1.00;;;26.20;49.10;;;;;;5056969;28;20032;-56
2021/06/27 01:46:43;;;;;;;1.33;0.90;;;26.20;49.00;;;;;;5055839;28;20107;-57
2021/06/27 01:49:11;;;;;;;1.17;1.00;;;26.20;49.10;;;;;;5064127;28;20174;-56
2021/06/27 01:51:37;;;;;;;1.63;1.20;;;26.20;49.10;;;;;;5068705;28;20033;-50
2021/06/27 01:54:03;;;;;;;1.27;1.02;;;26.20;49.10;;;;;;5066485;28;20162;-53
2021/06/27 01:56:29;;;;;;;1.42;1.20;;;26.20;49.10;;;;;;5051419;28;20136;-56
2021/06/27 01:58:57;;;;;;;1.83;1.10;;;26.20;49.10;;;;;;5057556;28;20047;-59
2021/06/27 02:01:31;;;;;;;1.38;1.00;;;26.20;49.10;;;;;;5049194;28;20029;-53
2021/06/27 02:03:57;;;;;;;1.00;0.90;;;26.20;49.10;;;;;;5046916;28;20040;-57
2021/06/27 02:06:24;;;;;;;1.20;1.00;;;26.10;49.60;;;;;;5060087;28;20024;-56
2021/06/27 02:08:51;;;;;;;1.17;1.00;;;26.10;49.10;;;;;;5067354;28;20723;-51
2021/06/27 02:11:20;;;;;;;1.23;1.10;;;26.10;49.10;;;;;;5048532;28;20749;-54
2021/06/27 02:13:46;;;;;;;1.30;1.10;;;26.10;49.10;;;;;;5067502;28;20383;-54
2021/06/27 02:16:13;;;;;;;1.10;1.00;;;26.10;49.10;;;;;;5058961;28;20024;-55
2021/06/27 02:18:41;;;;;;;1.10;1.00;;;26.10;49.10;;;;;;5058031;28;20028;-52
2021/06/27 02:21:12;;;;;;;1.77;1.20;;;26.10;49.10;;;;;;5067683;28;20035;-53
2021/06/27 02:23:38;;;;;;;1.80;1.10;;;26.10;49.10;;;;;;5068151;28;20487;-55
2021/06/27 02:26:04;;;;;;;1.20;1.10;;;26.10;49.10;;;;;;5066046;28;20020;-59
2021/06/27 02:28:31;;;;;;;1.30;1.10;;;26.10;49.10;;;;;;5067567;28;20029;-56
2021/06/27 02:30:57;;;;;;;1.48;1.10;;;26.10;49.20;;;;;;5066718;28;20048;-54
2021/06/27 02:33:23;;;;;;;1.63;1.23;;;26.10;49.20;;;;;;5066820;28;20130;-57
2021/06/27 02:35:49;;;;;;;1.08;0.98;;;26.10;49.20;;;;;;5057140;28;20537;-54
2021/06/27 02:38:15;;;;;;;1.20;1.00;;;26.10;49.20;;;;;;5055737;28;20101;-57
2021/06/27 02:40:42;;;;;;;2.15;1.00;;;26.10;49.20;;;;;;5066172;28;20025;-57
2021/06/27 02:43:08;;;;;;;1.30;1.00;;;26.10;49.20;;;;;;5064282;28;20111;-52
2021/06/27 02:45:34;;;;;;;1.30;1.10;;;26.10;49.20;;;;;;5056357;28;20177;-57
2021/06/27 02:48:00;;;;;;;1.30;1.10;;;26.10;49.20;;;;;;5055744;28;20021;-55
2021/06/27 02:50:26;;;;;;;1.55;1.17;;;26.10;49.30;;;;;;5066588;28;20036;-54
2021/06/27 02:52:52;;;;;;;1.50;1.10;;;26.10;49.20;;;;;;5066342;28;20036;-58
2021/06/27 02:55:17;;;;;;;1.40;1.00;;;26.00;49.20;;;;;;5067331;28;20105;-54
2021/06/27 02:57:43;;;;;;;1.30;1.10;;;26.10;49.30;;;;;;5062509;28;20104;-54
2021/06/27 03:00:15;;;;;;;1.10;0.82;;;26.00;49.20;;;;;;5065781;28;20031;-56
2021/06/27 03:02:41;;;;;;;1.55;1.08;;;26.00;49.20;;;;;;5062292;28;20052;-56
2021/06/27 03:05:11;;;;;;;1.70;1.20;;;26.00;49.20;;;;;;5052333;28;20056;-54
2021/06/27 03:07:37;;;;;;;1.30;1.10;;;26.00;49.20;;;;;;5066119;28;20020;-56
2021/06/27 03:10:08;;;;;;;1.15;1.00;;;26.00;49.20;;;;;;5053426;28;20371;-56
2021/06/27 03:12:33;;;;;;;1.13;1.00;;;26.00;49.20;;;;;;5066936;28;20483;-56
2021/06/27 03:14:59;;;;;;;1.40;1.00;;;26.00;49.30;;;;;;5066242;28;20032;-57
2021/06/27 03:17:25;;;;;;;1.15;1.00;;;26.00;49.30;;;;;;5066467;28;20518;-53
2021/06/27 03:19:50;;;;;;;1.08;0.95;;;26.00;49.30;;;;;;5064862;28;20028;-55
2021/06/27 03:22:16;;;;;;;1.42;1.10;;;25.90;49.20;;;;;;5067698;28;20060;-52
2021/06/27 03:24:42;;;;;;;1.15;0.95;;;26.00;49.30;;;;;;5064188;28;20025;-57
2021/06/27 03:27:07;;;;;;;1.40;1.10;;;26.00;49.30;;;;;;5047472;28;20708;-51
2021/06/27 03:29:33;;;;;;;1.30;1.00;;;26.00;49.30;;;;;;5048579;28;20079;-59
2021/06/27 03:31:59;;;;;;;1.23;1.02;;;25.90;49.30;;;;;;5054070;28;20029;-55
2021/06/27 03:34:25;;;;;;;1.42;0.95;;;25.90;49.30;;;;;;5058156;28;20452;-54
2021/06/27 03:36:50;;;;;;;1.15;1.00;;;25.90;49.80;;;;;;5064671;28;20036;-55
2021/06/27 03:39:19;;;;;;;1.35;1.10;;;25.90;49.30;;;;;;5067308;28;20436;-57
2021/06/27 03:41:49;;;;;;;1.10;0.90;;;25.90;49.30;;;;;;5065300;28;20574;-52
2021/06/27 03:44:15;;;;;;;1.30;1.13;;;25.90;49.30;;;;;;5066069;28;20037;-53
2021/06/27 03:46:40;;;;;;;1.10;1.00;;;25.90;49.30;;;;;;5064816;28;20367;-57
2021/06/27 03:49:06;;;;;;;1.10;1.00;;;25.90;49.30;;;;;;5066707;28;20032;-56
2021/06/27 03:51:32;;;;;;;1.20;1.08;;;25.90;49.30;;;;;;5060008;28;20020;-50
2021/06/27 03:53:58;;;;;;;1.30;1.02;;;25.90;49.30;;;;;;5065741;28;20781;-58
2021/06/27 03:56:24;;;;;;;1.00;0.90;;;25.90;49.30;;;;;;5065634;28;20033;-56
2021/06/27 03:58:50;;;;;;;1.30;1.08;;;25.90;49.30;;;;;;5060605;28;20567;-53
2021/06/27 04:01:16;;;;;;;0.90;0.88;;;25.90;49.30;;;;;;5042813;28;20033;-58
2021/06/27 04:03:42;;;;;;;1.10;1.00;;;25.90;49.40;;;;;;5058679;28;20036;-57
2021/06/27 04:06:08;;;;;;;1.20;1.00;;;25.90;49.40;;;;;;5064198;28;20593;-54
2021/06/27 04:08:34;;;;;;;1.35;1.20;;;25.90;49.40;;;;;;5064565;28;20085;-58
2021/06/27 04:10:59;;;;;;;1.25;1.08;;;25.80;49.40;;;;;;5063778;28;20029;-54
2021/06/27 04:13:30;;;;;;;1.20;1.10;;;25.80;49.40;;;;;;5068664;28;20036;-53
2021/06/27 04:15:56;;;;;;;1.60;1.00;;;25.80;49.40;;;;;;5057578;28;20147;-55
2021/06/27 04:18:23;;;;;;;1.25;1.08;;;25.80;49.40;;;;;;5048180;28;20032;-58
2021/06/27 04:20:49;;;;;;;1.08;0.98;;;25.80;49.40;;;;;;5057600;28;20029;-51
2021/06/27 04:23:15;;;;;;;1.50;1.17;;;25.80;49.40;;;;;;5069997;28;20166;-53
2021/06/27 04:25:42;;;;;;;1.20;1.00;;;25.80;49.40;;;;;;5066707;28;20028;-52
2021/06/27 04:28:08;;;;;;;1.20;1.00;;;25.80;49.40;;;;;;5066958;28;20435;-51
2021/06/27 04:30:34;;;;;;;1.13;1.02;;;25.80;49.40;;;;;;5066304;28;20029;-57
2021/06/27 04:33:00;;;;;;;1.13;1.00;;;25.80;49.50;;;;;;5067795;28;20016;-52
2021/06/27 04:35:26;;;;;;;1.13;1.00;;;25.80;49.50;;;;;;5064746;28;20132;-55
2021/06/27 04:37:52;;;;;;;1.35;0.80;;;25.80;49.50;;;;;;5069194;28;20123;-54
2021/06/27 04:40:17;;;;;;;1.30;1.00;;;25.80;49.50;;;;;;5069691;28;20103;-54
2021/06/27 04:42:43;;;;;;;0.98;0.82;;;25.70;49.40;;;;;;5068313;28;20025;-59
2021/06/27 04:45:09;;;;;;;1.30;1.10;;;25.70;49.40;;;;;;5053894;28;20032;-53
2021/06/27 04:47:35;;;;;;;1.00;0.90;;;25.70;49.40;;;;;;5069023;28;20478;-49
2021/06/27 04:50:04;;;;;;;1.10;0.90;;;25.70;49.40;;;;;;5062294;28;20108;-57
2021/06/27 04:52:31;;;;;;;1.30;1.10;;;25.70;49.40;;;;;;5049619;28;20033;-55
2021/06/27 04:54:56;;;;;;;1.40;1.10;;;25.70;49.40;;;;;;5066802;28;20706;-56
2021/06/27 04:57:22;;;;;;;1.40;1.10;;;25.70;49.50;;;;;;5050732;28;20108;-55
2021/06/27 04:59:48;;;;;;;1.35;1.00;;;25.70;49.50;;;;;;5064708;28;20044;-55
2021/06/27 05:02:13;;;;;;;1.23;1.13;;;25.70;49.50;;;;;;5064785;28;20053;-56
2021/06/27 05:04:39;;;;;;;1.10;1.00;;;25.70;49.50;;;;;;5049777;28;20025;-56
2021/06/27 05:07:04;;;;;;;1.23;1.02;;;25.70;49.50;;;;;;5049995;28;20550;-52
2021/06/27 05:09:30;;;;;;;1.40;1.05;;;25.70;49.50;;;;;;5057681;28;20025;-54
2021/06/27 05:11:55;;;;;;;1.20;1.00;;;25.70;49.50;;;;;;5055343;28;20180;-53
2021/06/27 05:14:21;;;;;;;1.40;1.20;;;25.70;49.50;;;;;;5047992;28;20371;-59
2021/06/27 05:16:47;;;;;;;1.10;1.00;;;25.70;49.50;;;;;;5053458;28;20033;-52
2021/06/27 05:19:12;;;;;;;2.00;1.30;;;25.70;49.50;;;;;;5057266;28;20025;-51
2021/06/27 05:21:38;;;;;;;3.55;2.20;;;25.70;49.70;;;;;;5064112;28;20037;-55
2021/06/27 05:24:05;;;;;;;4.05;2.45;;;25.70;49.90;;;;;;5056608;28;20036;-53
2021/06/27 05:26:30;;;;;;;3.65;2.80;;;25.70;50.00;;;;;;5056056;28;20047;-57
2021/06/27 05:28:56;;;;;;;3.30;2.45;;;25.60;50.00;;;;;;5065636;28;20349;-55
2021/06/27 05:31:22;;;;;;;3.92;3.05;;;25.60;50.00;;;;;;5063731;28;20043;-58
2021/06/27 05:33:47;;;;;;;4.43;2.80;;;25.60;50.20;;;;;;5059413;28;20185;-61
2021/06/27 05:36:13;;;;;;;3.75;3.10;;;25.60;50.40;;;;;;5063026;28;20039;-56
2021/06/27 05:38:39;;;;;;;4.25;3.25;;;25.50;50.70;;;;;;5056200;28;20025;-57
2021/06/27 05:41:05;;;;;;;3.17;2.85;;;25.50;50.60;;;;;;5058792;28;20039;-53
2021/06/27 05:43:31;;;;;;;3.55;2.85;;;25.40;51.40;;;;;;5051398;28;20036;-55
2021/06/27 05:45:56;;;;;;;3.70;3.30;;;25.40;51.20;;;;;;5059399;28;20043;-59
2021/06/27 05:48:22;;;;;;;4.15;2.50;;;25.40;51.50;;;;;;5057016;28;20017;-54
2021/06/27 05:50:47;;;;;;;3.70;2.80;;;25.30;51.60;;;;;;5058814;28;20183;-55
2021/06/27 05:53:13;;;;;;;3.67;3.20;;;25.30;51.70;;;;;;5059921;28;20761;-58
2021/06/27 05:55:39;;;;;;;3.60;2.95;;;25.30;51.90;;;;;;5058857;28;20082;-55
2021/06/27 05:58:05;;;;;;;4.20;3.03;;;25.20;51.90;;;;;;5059850;28;20033;-56
2021/06/27 06:00:31;;;;;;;3.47;2.88;;;25.20;52.00;;;;;;5063570;28;20047;-56
2021/06/27 06:02:57;;;;;;;3.90;3.20;;;25.10;52.10;;;;;;5043751;28;20033;-54
2021/06/27 06:05:22;;;;;;;3.63;3.08;;;25.10;52.10;;;;;;5049863;28;20045;-57
2021/06/27 06:07:48;;;;;;;3.70;3.10;;;25.10;52.30;;;;;;5059959;28;20123;-54
2021/06/27 06:10:13;;;;;;;3.45;3.05;;;25.10;52.50;;;;;;5059976;28;20024;-52
2021/06/27 06:12:39;;;;;;;3.70;3.22;;;25.00;52.70;;;;;;5059156;28;20416;-57
2021/06/27 06:15:05;;;;;;;3.33;3.00;;;25.00;52.90;;;;;;5052955;28;20590;-54
2021/06/27 06:17:31;;;;;;;3.55;3.10;;;24.90;52.80;;;;;;5047933;28;20029;-54
2021/06/27 06:19:57;;;;;;;3.80;3.40;;;24.90;53.10;;;;;;5045632;28;20094;-56
2021/06/27 06:22:23;;;;;;;3.55;3.10;;;24.90;53.10;;;;;;5052830;28;20409;-55
2021/06/27 06:24:48;;;;;;;3.25;2.70;;;24.80;53.10;;;;;;5048325;28;20116;-57
2021/06/27 06:27:14;;;;;;;3.38;2.88;;;24.80;53.30;;;;;;5051054;28;20131;-56
2021/06/27 06:29:40;;;;;;;3.72;3.03;;;24.80;53.50;;;;;;5049684;28;20017;-56
2021/06/27 06:32:06;;;;;;;3.70;3.15;;;24.80;53.60;;;;;;5045607;28;20954;-52
2021/06/27 06:34:32;;;;;;;3.83;2.95;;;24.80;53.80;;;;;;5056282;28;20020;-52
2021/06/27 06:36:58;;;;;;;3.85;3.10;;;24.80;53.80;;;;;;5055064;28;20032;-54
2021/06/27 06:39:23;;;;;;;5.45;3.10;;;24.70;54.20;;;;;;5051322;28;20152;-55
2021/06/27 06:41:49;;;;;;;4.60;3.38;;;24.70;54.10;;;;;;5049125;28;20051;-55
2021/06/27 06:44:14;;;;;;;3.65;3.35;;;24.70;54.20;;;;;;5058497;28;20535;-53
2021/06/27 06:46:40;;;;;;;3.60;3.10;;;24.70;54.10;;;;;;5047418;28;20388;-60
2021/06/27 06:49:06;;;;;;;3.50;3.10;;;24.60;54.10;;;;;;5061389;28;20203;-53
2021/06/27 06:51:32;;;;;;;4.30;3.53;;;24.60;54.30;;;;;;5058485;28;20852;-56
2021/06/27 06:53:58;;;;;;;3.35;3.03;;;24.60;54.50;;;;;;5061770;28;20058;-54
2021/06/27 06:56:24;;;;;;;3.60;3.10;;;24.60;54.50;;;;;;5055999;28;20395;-51
2021/06/27 06:58:50;;;;;;;3.78;3.38;;;24.60;54.60;;;;;;5053552;28;20045;-52
2021/06/27 07:01:17;;;;;;;3.75;3.08;;;24.60;54.70;;;;;;5045714;28;20578;-57
2021/06/27 07:03:44;;;;;;;3.45;3.08;;;24.60;54.80;;;;;;5045686;28;20051;-55
2021/06/27 07:06:09;;;;;;;5.10;3.33;;;24.60;55.10;;;;;;5050803;28;20025;-50
2021/06/27 07:08:35;;;;;;;3.80;3.28;;;24.50;55.10;;;;;;5048903;28;20036;-57
2021/06/27 07:11:01;;;;;;;4.45;3.05;;;24.50;55.00;;;;;;5056027;28;20059;-58
2021/06/27 07:13:26;;;;;;;5.43;3.42;;;24.50;55.10;;;;;;5045777;28;20029;-55
2021/06/27 07:15:52;;;;;;;3.70;3.30;;;24.50;55.30;;;;;;5055413;28;20047;-52
2021/06/27 07:18:18;;;;;;;3.55;3.25;;;24.50;55.00;;;;;;5051177;28;20155;-54
2021/06/27 07:20:43;;;;;;;4.05;3.20;;;24.50;55.20;;;;;;5062355;28;20490;-51
2021/06/27 07:23:09;;;;;;;3.90;3.38;;;24.50;55.20;;;;;;5046354;28;20060;-52
2021/06/27 07:25:34;;;;;;;3.25;2.80;;;24.50;55.40;;;;;;5059849;28;20456;-54
2021/06/27 07:28:00;;;;;;;5.03;3.15;;;24.50;55.20;;;;;;5064096;28;20725;-55
2021/06/27 07:30:26;;;;;;;4.18;2.90;;;24.50;55.00;;;;;;5052702;28;20033;-51
2021/06/27 07:32:51;;;;;;;3.00;2.70;;;24.50;55.30;;;;;;5061514;28;20049;-54
2021/06/27 07:35:17;;;;;;;3.30;3.00;;;24.50;55.40;;;;;;5053251;28;20036;-52
2021/06/27 07:37:44;;;;;;;3.05;2.65;;;24.50;55.20;;;;;;5062939;28;20356;-53
2021/06/27 07:40:10;;;;;;;3.28;2.95;;;24.50;55.00;;;;;;5059630;28;20064;-53
2021/06/27 07:42:36;;;;;;;3.40;2.78;;;24.50;54.80;;;;;;5063187;28;20088;-50
2021/06/27 07:45:03;;;;;;;3.05;2.72;;;24.50;54.90;;;;;;5061042;28;20476;-52
2021/06/27 07:47:29;;;;;;;3.20;2.90;;;24.50;55.20;;;;;;5048146;28;20126;-53
2021/06/27 07:49:54;;;;;;;2.95;2.65;;;24.60;55.00;;;;;;5062904;28;20127;-55
2021/06/27 07:52:20;;;;;;;3.47;3.00;;;24.50;55.00;;;;;;5052640;28;20036;-57
2021/06/27 07:54:45;;;;;;;3.60;2.80;;;24.50;55.00;;;;;;5064431;28;20086;-53
2021/06/27 07:57:11;;;;;;;4.03;2.88;;;24.60;55.10;;;;;;5056025;28;20112;-56
2021/06/27 07:59:37;;;;;;;2.80;2.40;;;24.50;55.00;;;;;;5062091;28;20025;-54
2021/06/27 08:02:03;;;;;;;3.13;2.60;;;24.60;54.90;;;;;;5060002;28;20074;-58
2021/06/27 08:04:28;;;;;;;3.20;2.60;;;24.60;54.80;;;;;;5045331;28;20033;-54
2021/06/27 08:06:54;;;;;;;2.80;2.50;;;24.60;54.70;;;;;;5055862;28;20464;-53
2021/06/27 08:09:20;;;;;;;2.90;2.60;;;24.60;54.60;;;;;;5068697;28;20354;-51
2021/06/27 08:11:46;;;;;;;3.67;2.65;;;24.60;54.50;;;;;;5059332;28;20380;-53
2021/06/27 08:14:12;;;;;;;3.63;2.60;;;24.60;54.40;;;;;;5049993;28;20044;-56
2021/06/27 08:16:38;;;;;;;2.97;2.20;;;24.60;54.40;;;;;;5066668;28;20032;-49
2021/06/27 08:19:06;;;;;;;3.08;2.40;;;24.60;54.30;;;;;;5059413;28;20127;-54
2021/06/27 08:21:32;;;;;;;3.03;2.30;;;24.60;54.20;;;;;;5059314;28;20036;-51
2021/06/27 08:23:57;;;;;;;3.17;2.33;;;24.70;54.20;;;;;;5056650;28;20560;-51
2021/06/27 08:26:24;;;;;;;2.90;2.22;;;24.70;54.10;;;;;;5065095;28;20090;-53
2021/06/27 08:28:50;;;;;;;4.00;2.40;;;24.70;54.10;;;;;;5068222;28;20321;-52
2021/06/27 08:31:16;;;;;;;2.75;2.30;;;24.70;54.00;;;;;;5049114;28;20483;-52
2021/06/27 08:33:42;;;;;;;2.70;2.30;;;24.70;54.00;;;;;;5050136;28;20037;-51
2021/06/27 08:36:07;;;;;;;3.58;2.50;;;24.70;53.80;;;;;;5053224;28;20035;-53
2021/06/27 08:38:33;;;;;;;3.00;2.33;;;24.70;53.80;;;;;;5065953;28;20764;-52
2021/06/27 08:40:59;;;;;;;2.67;2.38;;;24.70;53.80;;;;;;5054763;28;20029;-52
2021/06/27 08:43:30;;;;;;;2.75;2.22;;;24.70;53.80;;;;;;5046396;28;20029;-55
2021/06/27 08:45:57;;;;;;;2.60;2.20;;;24.80;53.70;;;;;;5053260;28;20120;-50
2021/06/27 08:48:24;;;;;;;2.80;2.33;;;24.80;53.60;;;;;;5054949;28;20071;-56
2021/06/27 08:50:51;;;;;;;2.83;2.20;;;24.80;53.60;;;;;;5062437;28;20037;-53
2021/06/27 08:53:17;;;;;;;2.40;1.98;;;24.80;54.00;;;;;;5056995;28;20024;-52
2021/06/27 08:55:43;;;;;;;3.30;2.22;;;24.80;53.40;;;;;;5059432;28;20020;-55
2021/06/27 08:58:10;;;;;;;2.60;2.00;;;24.80;53.40;;;;;;5055796;28;20036;-56
2021/06/27 09:00:37;;;;;;;2.92;2.17;;;24.80;53.30;;;;;;5054852;28;20037;-54
2021/06/27 09:03:10;;;;;;;2.63;2.00;;;24.80;53.30;;;;;;5049033;28;20055;-54
2021/06/27 09:05:38;;;;;;;2.53;2.13;;;24.80;53.20;;;;;;5050821;28;20040;-57
2021/06/27 09:08:18;;;;;;;2.22;1.85;;;24.80;53.30;;;;;;5062566;28;20031;-52
2021/06/27 09:10:44;;;;;;;3.25;2.13;;;24.90;53.30;;;;;;5059161;28;20056;-61
2021/06/27 09:13:10;;;;;;;2.75;2.20;;;24.90;53.10;;;;;;5042595;28;20032;-51
2021/06/27 09:15:50;;;;;;;2.55;1.90;;;24.90;53.10;;;;;;5046201;28;20281;-57
2021/06/27 09:18:16;;;;;;;2.30;2.00;;;24.90;53.10;;;;;;5051683;28;20547;-58
2021/06/27 09:20:53;;;;;;;3.03;1.83;;;24.90;53.00;;;;;;5057145;28;20025;-55
2021/06/27 09:23:34;;;;;;;3.28;2.00;;;24.90;53.00;;;;;;5042140;28;20059;-53
2021/06/27 09:26:00;;;;;;;2.30;1.90;;;24.90;52.90;;;;;;5048314;28;20215;-57
2021/06/27 09:28:43;;;;;;;2.20;1.90;;;24.90;52.90;;;;;;5052581;28;20025;-57
2021/06/27 09:31:09;;;;;;;2.60;2.00;;;24.90;52.90;;;;;;5051553;28;20464;-50
2021/06/27 09:33:35;;;;;;;2.60;2.10;;;24.90;52.80;;;;;;5056837;28;20036;-56
2021/06/27 09:36:09;;;;;;;2.63;2.00;;;24.90;52.80;;;;;;5059489;28;20029;-59
2021/06/27 09:38:48;;;;;;;2.42;2.00;;;25.00;52.80;;;;;;5060707;28;20646;-57
2021/06/27 09:41:20;;;;;;;2.30;1.80;;;24.90;52.70;;;;;;5052082;28;20036;-54
2021/06/27 09:43:54;;;;;;;2.50;1.90;;;24.90;52.60;;;;;;5042435;28;20041;-56
2021/06/27 09:46:40;;;;;;;1.90;1.60;;;25.00;52.70;;;;;;5048897;28;20032;-55
2021/06/27 09:49:12;;;;;;;2.10;1.75;;;25.00;52.70;;;;;;5047080;28;20067;-54
2021/06/27 09:51:42;;;;;;;2.10;1.80;;;25.00;52.60;;;;;;5056452;28;20098;-53
2021/06/27 09:54:12;;;;;;;;;;;25.00;52.60;;;;;;5060578;28;20407;-58
2021/06/27 09:56:38;;;;;;;2.45;1.90;;;25.00;52.60;;;;;;5059254;28;20030;-55
2021/06/27 09:59:09;;;;;;;2.40;1.85;;;25.00;52.50;;;;;;5057549;28;20414;-56
2021/06/27 10:01:36;;;;;;;1.90;1.70;;;25.00;52.50;;;;;;5055290;28;20182;-56
2021/06/27 10:04:04;;;;;;;2.65;1.77;;;25.00;52.50;;;;;;5046769;28;20028;-51
2021/06/27 10:06:32;;;;;;;2.20;1.73;;;25.00;52.50;;;;;;5050837;28;20025;-54
2021/06/27 10:09:16;;;;;;;2.20;1.90;;;25.00;52.40;;;;;;5064736;28;20191;-52
2021/06/27 10:12:08;;;;;;;2.22;1.80;;;25.00;52.40;;;;;;5052783;28;20033;-57
2021/06/27 10:14:49;;;;;;;2.10;1.70;;;25.10;52.50;;;;;;5044868;28;20484;-48
2021/06/27 10:17:16;;;;;;;2.15;1.80;;;25.10;52.50;;;;;;5044565;28;20036;-56
2021/06/27 10:19:43;;;;;;;2.30;1.85;;;25.10;52.40;;;;;;5050981;28;20116;-56
2021/06/27 10:22:09;;;;;;;1.90;1.60;;;25.10;52.50;;;;;;5062267;28;20043;-57
2021/06/27 10:24:35;;;;;;;2.13;1.80;;;25.10;52.50;;;;;;5054425;28;20032;-56
2021/06/27 10:27:01;;;;;;;2.10;1.60;;;25.10;52.50;;;;;;5058558;28;20710;-56
2021/06/27 10:29:26;;;;;;;2.00;1.75;;;25.10;52.40;;;;;;5051247;28;20040;-53
2021/06/27 10:31:55;;;;;;;2.10;1.80;;;25.10;52.40;;;;;;5053194;28;20040;-56
2021/06/27 10:34:21;;;;;;;2.20;1.63;;;25.10;52.40;;;;;;5053715;28;20116;-57
2021/06/27 10:37:16;;;;;;;2.10;1.70;;;25.10;52.40;;;;;;5052548;28;20060;-52
2021/06/27 10:39:57;;;;;;;1.85;1.50;;;25.10;52.40;;;;;;5064127;28;20028;-52
2021/06/27 10:42:48;;;;;;;2.45;1.80;;;25.10;52.40;;;;;;5052147;28;20029;-57
2021/06/27 10:45:22;;;;;;;1.73;1.50;;;25.10;52.40;;;;;;5050594;28;20036;-54
2021/06/27 10:47:48;;;;;;;1.80;1.50;;;25.10;52.40;;;;;;5051004;28;20029;-50
2021/06/27 10:50:16;;;;;;;1.92;1.60;;;25.10;52.40;;;;;;5052254;28;20067;-55
2021/06/27 10:52:51;;;;;;;1.88;1.50;;;25.10;52.40;;;;;;5063908;28;20020;-55
2021/06/27 10:55:30;;;;;;;2.38;1.80;;;25.10;52.40;;;;;;5046090;28;20125;-52
2021/06/27 10:57:58;;;;;;;2.00;1.65;;;25.10;52.40;;;;;;5048744;28;20659;-52
2021/06/27 11:00:26;;;;;;;2.15;1.80;;;25.10;52.40;;;;;;5051708;28;20120;-53
2021/06/27 11:02:52;;;;;;;2.08;1.65;;;25.10;52.30;;;;;;5055369;28;20032;-55
2021/06/27 11:05:33;;;;;;;2.65;1.55;;;25.10;52.40;;;;;;5043070;28;20047;-56
2021/06/27 11:08:00;;;;;;;1.90;1.60;;;25.10;52.30;;;;;;5061512;28;20511;-54
2021/06/27 11:10:28;;;;;;;1.88;1.40;;;25.10;52.30;;;;;;5056066;28;20447;-50
2021/06/27 11:13:02;;;;;;;2.22;1.70;;;25.10;52.30;;;;;;5043341;28;20040;-52
2021/06/27 11:15:29;;;;;;;2.35;1.85;;;25.20;52.40;;;;;;5048445;28;20021;-50
2021/06/27 11:18:00;;;;;;;1.98;1.60;;;25.10;52.40;;;;;;5046199;28;20474;-55
2021/06/27 11:20:29;;;;;;;1.85;1.60;;;25.10;52.30;;;;;;5054602;28;20501;-53
2021/06/27 11:22:56;;;;;;;2.17;1.70;;;25.20;52.40;;;;;;5063582;28;20057;-55
2021/06/27 11:25:42;;;;;;;1.80;1.50;;;25.10;52.40;;;;;;5055632;28;20626;-54
2021/06/27 11:28:23;;;;;;;1.90;1.50;;;25.20;52.50;;;;;;5056378;28;20028;-51
2021/06/27 11:31:10;;;;;;;2.40;1.70;;;25.20;52.50;;;;;;5065762;28;20040;-55
2021/06/27 11:33:36;;;;;;;1.90;1.52;;;25.20;52.60;;;;;;5048512;28;20048;-53
2021/06/27 11:36:01;;;;;;;2.10;1.70;;;25.20;52.50;;;;;;5058470;28;20086;-58
2021/06/27 11:38:42;;;;;;;1.85;1.42;;;25.20;52.50;;;;;;5063096;28;20041;-49
2021/06/27 11:41:17;;;;;;;1.70;1.50;;;25.20;52.40;;;;;;5063396;28;20032;-56
2021/06/27 11:44:06;;;;;;;1.60;1.40;;;25.20;52.40;;;;;;5061314;28;20033;-52
2021/06/27 11:46:44;;;;;;;1.92;1.35;;;25.20;52.40;;;;;;5062331;28;20101;-53
2021/06/27 11:49:15;;;;;;;2.33;1.50;;;25.20;52.40;;;;;;5060819;28;20387;-55
2021/06/27 11:51:47;;;;;;;1.83;1.50;;;25.20;52.30;;;;;;5053894;28;20495;-56
2021/06/27 11:54:16;;;;;;;2.00;1.50;;;25.20;52.30;;;;;;5061976;28;20025;-53
2021/06/27 11:56:56;;;;;;;1.67;1.42;;;25.30;52.50;;;;;;5057791;28;20384;-58
2021/06/27 11:59:26;;;;;;;2.88;1.48;;;25.30;52.30;;;;;;5058706;28;20448;-55
2021/06/27 12:02:12;;;;;;;;;;;25.30;52.30;;;;;;5060755;28;20040;-56
2021/06/27 12:04:57;;;;;;;2.10;1.60;;;25.30;52.30;;;;;;5051561;28;20279;-56
2021/06/27 12:07:35;;;;;;;2.00;1.42;;;25.30;52.30;;;;;;5054188;28;20074;-55
2021/06/27 12:10:06;;;;;;;2.00;1.60;;;25.30;52.20;;;;;;5062119;28;20033;-52
2021/06/27 12:12:36;;;;;;;1.58;1.40;;;25.30;52.10;;;;;;5053209;28;20133;-52
2021/06/27 12:15:02;;;;;;;;;;;25.30;52.10;;;;;;5057468;28;20660;-48
2021/06/27 12:17:28;;;;;;;1.73;1.40;;;25.30;52.10;;;;;;5060393;28;19919;-54
2021/06/27 12:19:54;;;;;;;1.90;1.60;;;25.30;52.00;;;;;;5057403;28;20751;-54
2021/06/27 12:22:20;;;;;;;1.92;1.60;;;25.40;52.10;;;;;;5065747;28;20039;-56
2021/06/27 12:24:46;;;;;;;2.00;1.42;;;25.40;52.00;;;;;;5060526;28;20517;-55
2021/06/27 12:27:12;;;;;;;1.63;1.42;;;25.40;52.00;;;;;;5054405;28;20028;-60
2021/06/27 12:29:58;;;;;;;1.95;1.42;;;25.40;52.00;;;;;;5058975;28;20518;-52
2021/06/27 12:32:24;;;;;;;2.55;1.50;;;25.40;52.00;;;;;;5063709;28;20457;-55
2021/06/27 12:34:50;;;;;;;2.40;1.55;;;25.40;52.10;;;;;;5056366;28;20041;-50
2021/06/27 12:37:15;;;;;;;2.25;1.50;;;25.40;52.10;;;;;;5049359;28;20116;-55
2021/06/27 12:39:41;;;;;;;1.67;1.33;;;25.40;52.10;;;;;;5054165;28;20037;-53
2021/06/27 12:42:08;;;;;;;2.40;1.50;;;25.40;52.10;;;;;;5058349;28;20063;-54
2021/06/27 12:44:34;;;;;;;1.48;1.30;;;25.40;52.10;;;;;;5062737;28;20309;-50
2021/06/27 12:47:00;;;;;;;2.13;1.70;;;25.40;52.10;;;;;;5062262;28;20086;-54
2021/06/27 12:49:29;;;;;;;1.67;1.40;;;25.40;52.10;;;;;;5053787;28;20036;-52
2021/06/27 12:51:58;;;;;;;1.60;1.33;;;25.40;52.20;;;;;;5056828;28;20153;-54